createdAt,value
2023-03-05T00:01:40.608Z,99706.59
2023-03-05T00:04:12.810Z,99693.72
2023-03-05T00:06:41.477Z,99689.41
2023-03-05T00:09:09.086Z,99689.66
2023-03-05T00:11:38.107Z,99687.75
2023-03-05T00:14:06.557Z,99679.97
2023-03-05T00:16:34.359Z,99679.38
2023-03-05T00:19:03.297Z,99683.50
2023-03-05T00:21:40.426Z,99693.50
2023-03-05T00:24:18.342Z,99692.81
2023-03-05T00:26:46.504Z,99686.09
2023-03-05T00:29:18.561Z,99693.19
2023-03-05T00:31:46.504Z,99699.50
2023-03-05T00:34:16.870Z,99704.91
2023-03-05T00:36:50.437Z,99716.09
2023-03-05T00:39:20.790Z,99718.97
2023-03-05T00:41:51.617Z,99719.88
2023-03-05T00:44:19.782Z,99717.59
2023-03-05T00:46:48.534Z,99715.09
2023-03-05T00:49:22.133Z,99709.75
2023-03-05T00:51:49.864Z,99714.97
2023-03-05T00:54:17.835Z,99710.00
2023-03-05T00:56:47.494Z,99711.69
2023-03-05T00:59:15.682Z,99719.41
2023-03-05T01:01:43.419Z,99717.50
2023-03-05T01:04:11.748Z,99719.13
2023-03-05T01:06:44.878Z,99706.38
2023-03-05T01:09:15.523Z,99717.81
2023-03-05T01:11:43.130Z,99708.28
2023-03-05T01:14:10.801Z,99717.16
2023-03-05T01:16:39.091Z,99728.38
2023-03-05T01:19:06.743Z,99724.41
2023-03-05T01:21:36.823Z,99724.41
2023-03-05T01:24:07.693Z,99716.03
2023-03-05T01:26:35.800Z,99729.88
2023-03-05T01:29:04.137Z,99737.03
2023-03-05T01:31:32.562Z,99726.75
2023-03-05T01:34:00.394Z,99725.78
2023-03-05T01:36:34.282Z,99731.81
2023-03-05T01:39:02.887Z,99725.00
2023-03-05T01:41:31.554Z,99722.56
2023-03-05T01:43:59.183Z,99726.69
2023-03-05T01:46:31.599Z,99737.13
2023-03-05T01:49:04.580Z,99742.63
2023-03-05T01:51:38.266Z,99745.31
2023-03-05T01:54:09.162Z,99749.13
2023-03-05T01:56:39.397Z,99743.19
2023-03-05T01:59:07.921Z,99734.53
2023-03-05T02:01:41.109Z,99753.78
2023-03-05T02:04:11.649Z,99764.13
2023-03-05T02:06:41.687Z,99755.66
2023-03-05T02:09:10.273Z,99758.91
2023-03-05T02:11:41.869Z,99767.41
2023-03-05T02:14:10.505Z,99784.63
2023-03-05T02:16:39.064Z,99776.78
2023-03-05T02:19:16.518Z,99787.03
2023-03-05T02:21:48.235Z,99778.50
2023-03-05T02:24:19.994Z,99783.72
2023-03-05T02:26:47.985Z,99787.22
2023-03-05T02:29:20.224Z,99795.06
2023-03-05T02:31:49.205Z,99794.22
2023-03-05T02:34:18.260Z,99793.44
2023-03-05T02:36:46.815Z,99797.66
2023-03-05T02:39:15.071Z,99795.06
2023-03-05T02:41:43.835Z,99803.09
2023-03-05T02:44:12.345Z,99792.72
2023-03-05T02:46:43.761Z,99786.66
2023-03-05T02:49:11.728Z,99801.72
2023-03-05T02:51:39.622Z,99799.97
2023-03-05T02:54:08.086Z,99801.59
2023-03-05T02:56:38.422Z,99795.59
2023-03-05T02:59:06.520Z,99804.59
2023-03-05T03:01:34.357Z,99804.66
2023-03-05T03:04:02.359Z,99804.66
2023-03-05T03:06:30.269Z,99798.16
2023-03-05T03:08:58.347Z,99796.38
2023-03-05T03:11:25.926Z,99804.66
2023-03-05T03:13:53.554Z,99802.06
2023-03-05T03:16:25.475Z,99812.72
2023-03-05T03:18:53.384Z,99806.00
2023-03-05T03:21:24.355Z,99807.84
2023-03-05T03:23:52.847Z,99807.72
2023-03-05T03:26:20.975Z,99817.44
2023-03-05T03:28:48.884Z,99818.34
2023-03-05T03:31:16.806Z,99821.69
2023-03-05T03:33:44.690Z,99824.66
2023-03-05T03:36:12.295Z,99830.00
2023-03-05T03:38:40.267Z,99829.13
2023-03-05T03:41:09.026Z,99831.13
2023-03-05T03:43:37.720Z,99833.63
2023-03-05T03:46:11.540Z,99832.66
2023-03-05T03:48:39.699Z,99829.13
2023-03-05T03:51:08.220Z,99830.00
2023-03-05T03:53:35.918Z,99822.47
2023-03-05T03:56:04.117Z,99817.81
2023-03-05T03:58:32.727Z,99819.56
2023-03-05T04:01:00.647Z,99813.56
2023-03-05T04:03:28.158Z,99815.13
2023-03-05T04:05:55.897Z,99807.84
2023-03-05T04:08:24.191Z,99806.91
2023-03-05T04:10:53.090Z,99803.72
2023-03-05T04:13:20.616Z,99817.34
2023-03-05T04:15:51.387Z,99820.06
2023-03-05T04:18:19.128Z,99819.22
2023-03-05T04:20:46.875Z,99826.91
2023-03-05T04:23:14.590Z,99821.03
2023-03-05T04:25:42.247Z,99831.03
2023-03-05T04:28:15.379Z,99839.84
2023-03-05T04:30:52.715Z,99840.13
2023-03-05T04:33:20.613Z,99843.44
2023-03-05T04:35:48.512Z,99851.25
2023-03-05T04:38:16.835Z,99856.72
2023-03-05T04:40:45.452Z,99855.25
2023-03-05T04:43:13.154Z,99854.03
2023-03-05T04:45:43.743Z,99854.91
2023-03-05T04:48:11.542Z,99867.19
2023-03-05T04:50:40.551Z,99875.72
2023-03-05T04:53:09.161Z,99876.75
2023-03-05T04:55:36.688Z,99885.22
2023-03-05T04:58:04.300Z,99884.44
2023-03-05T05:00:31.960Z,99876.75
2023-03-05T05:03:00.083Z,99885.59
2023-03-05T05:05:28.995Z,99884.69
2023-03-05T05:07:58.383Z,99893.56
2023-03-05T05:10:29.220Z,99900.34
2023-03-05T05:12:57.653Z,99893.28
2023-03-05T05:15:25.295Z,99905.97
2023-03-05T05:17:53.928Z,99912.19
2023-03-05T05:20:22.392Z,99913.16
2023-03-05T05:22:51.131Z,99917.81
2023-03-05T05:25:18.752Z,99928.88
2023-03-05T05:27:46.946Z,99924.31
2023-03-05T05:30:14.900Z,99923.53
2023-03-05T05:32:42.606Z,99925.41
2023-03-05T05:35:11.039Z,99931.44
2023-03-05T05:37:38.869Z,99929.75
2023-03-05T05:40:08.400Z,99932.13
2023-03-05T05:42:36.267Z,99929.53
2023-03-05T05:45:04.114Z,99929.59
2023-03-05T05:47:32.433Z,99936.31
2023-03-05T05:50:02.500Z,99936.28
2023-03-05T05:52:30.565Z,99943.06
2023-03-05T05:54:58.047Z,99943.88
2023-03-05T05:57:25.643Z,99953.56
2023-03-05T05:59:57.642Z,99935.16
2023-03-05T06:02:27.796Z,99954.38
2023-03-05T06:04:58.174Z,99944.81
2023-03-05T06:07:27.225Z,99953.25
2023-03-05T06:09:54.718Z,99955.19
2023-03-05T06:12:23.923Z,99961.88
2023-03-05T06:15:05.929Z,99960.19
2023-03-05T06:17:33.683Z,99962.75
2023-03-05T06:20:06.686Z,99967.97
2023-03-05T06:22:39.120Z,99968.56
2023-03-05T06:25:08.688Z,99971.00
2023-03-05T06:27:36.517Z,99972.53
2023-03-05T06:30:06.282Z,99978.69
2023-03-05T06:32:34.247Z,99981.25
2023-03-05T06:35:01.899Z,99982.84
2023-03-05T06:37:31.058Z,99988.06
2023-03-05T06:39:58.642Z,99980.91
2023-03-05T06:42:26.205Z,99978.34
2023-03-05T06:44:53.806Z,99964.53
2023-03-05T06:47:52.916Z,99976.75
2023-03-05T06:50:29.210Z,99984.47
2023-03-05T06:52:56.746Z,99990.53
2023-03-05T06:55:24.701Z,99991.19
2023-03-05T06:57:52.249Z,99998.41
2023-03-05T07:00:20.306Z,99995.03
2023-03-05T07:03:20.726Z,99986.84
2023-03-05T07:05:59.406Z,99998.91
2023-03-05T07:08:27.066Z,99999.81
2023-03-05T07:10:56.277Z,100018.19
2023-03-05T07:13:29.521Z,99997.56
2023-03-05T07:15:57.496Z,100001.75
2023-03-05T07:18:25.195Z,100009.56
2023-03-05T07:20:52.707Z,100018.22
2023-03-05T07:23:21.568Z,100022.66
2023-03-05T07:25:49.067Z,100020.56
2023-03-05T07:28:17.926Z,100018.78
2023-03-05T07:31:04.540Z,100019.41
2023-03-05T07:33:35.457Z,100022.97
2023-03-05T07:36:08.698Z,100019.56
2023-03-05T07:38:37.808Z,100024.63
2023-03-05T07:41:07.420Z,100020.69
2023-03-05T07:43:37.743Z,100014.31
2023-03-05T07:46:10.504Z,100011.44
2023-03-05T07:48:40.966Z,100013.72
2023-03-05T07:51:14.868Z,100002.47
2023-03-05T07:53:47.708Z,100003.25
2023-03-05T07:56:29.132Z,100008.91
2023-03-05T07:58:56.821Z,100014.63
2023-03-05T08:01:24.794Z,100010.00
2023-03-05T08:03:52.341Z,100004.72
2023-03-05T08:06:20.546Z,100011.88
2023-03-05T08:08:48.810Z,100014.22
2023-03-05T08:11:17.670Z,99994.97
2023-03-05T08:13:45.521Z,99999.50
2023-03-05T08:16:16.390Z,99996.19
2023-03-05T08:18:45.393Z,100004.72
2023-03-05T08:21:21.692Z,100022.19
2023-03-05T08:23:49.590Z,100019.78
2023-03-05T08:26:21.533Z,100014.97
2023-03-05T08:28:50.335Z,100013.84
2023-03-05T08:31:22.769Z,100032.50
2023-03-05T08:33:52.647Z,100017.56
2023-03-05T08:36:21.116Z,100026.97
2023-03-05T08:38:50.707Z,100031.84
2023-03-05T08:41:19.751Z,100034.72
2023-03-05T08:43:55.045Z,100024.91
2023-03-05T08:46:22.910Z,100031.56
2023-03-05T08:48:50.846Z,100029.41
2023-03-05T08:51:21.543Z,100045.56
2023-03-05T08:53:49.309Z,100053.03
2023-03-05T08:56:18.933Z,100060.72
2023-03-05T08:58:47.370Z,100065.53
2023-03-05T09:01:15.540Z,100053.38
2023-03-05T09:03:43.183Z,100051.00
2023-03-05T09:06:12.559Z,100050.72
2023-03-05T09:08:43.073Z,100052.28
2023-03-05T09:11:13.503Z,100047.81
2023-03-05T09:13:41.356Z,100052.75
2023-03-05T09:16:15.709Z,100061.47
2023-03-05T09:18:45.741Z,100052.84
2023-03-05T09:21:16.727Z,100043.16
2023-03-05T09:23:47.407Z,100053.44
2023-03-05T09:26:19.424Z,100043.59
2023-03-05T09:28:49.250Z,100066.06
2023-03-05T09:31:18.083Z,100052.56
2023-03-05T09:33:47.230Z,100051.94
2023-03-05T09:36:26.806Z,100037.28
2023-03-05T09:38:54.759Z,100040.38
2023-03-05T09:41:43.594Z,100062.72
2023-03-05T09:44:35.890Z,100047.81
2023-03-05T09:47:21.602Z,100033.66
2023-03-05T09:50:19.212Z,100038.63
2023-03-05T09:53:01.883Z,100038.44
2023-03-05T09:55:40.408Z,100039.13
2023-03-05T09:58:31.666Z,100027.47
2023-03-05T10:01:07.639Z,100036.00
2023-03-05T10:03:51.254Z,100027.41
2023-03-05T10:06:32.876Z,100024.31
2023-03-05T10:09:51.238Z,100029.22
2023-03-05T10:12:25.394Z,100031.84
2023-03-05T10:15:02.718Z,100030.31
2023-03-05T10:17:50.070Z,100030.53
2023-03-05T10:20:35.926Z,100029.31
2023-03-05T10:23:25.622Z,100026.34
2023-03-05T10:26:02.139Z,100020.53
2023-03-05T10:28:34.987Z,100022.84
2023-03-05T10:31:30.517Z,100028.38
2023-03-05T10:34:27.612Z,100033.19
2023-03-05T10:37:01.288Z,100018.03
2023-03-05T10:39:52.159Z,100022.91
2023-03-05T10:42:31.020Z,100013.09
2023-03-05T10:45:04.166Z,100022.53
2023-03-05T10:47:52.602Z,100001.06
2023-03-05T10:50:22.510Z,100024.78
2023-03-05T10:53:17.061Z,100010.53
2023-03-05T10:55:44.646Z,100019.38
2023-03-05T10:58:15.198Z,100009.44
2023-03-05T11:00:58.526Z,100011.94
2023-03-05T11:03:26.467Z,100004.75
2023-03-05T11:06:02.489Z,100003.91
2023-03-05T11:08:36.362Z,100008.53
2023-03-05T11:11:10.318Z,100015.38
2023-03-05T11:13:51.996Z,100010.06
2023-03-05T11:16:31.922Z,100004.75
2023-03-05T11:19:17.678Z,99997.69
2023-03-05T11:21:47.727Z,100008.16
2023-03-05T11:24:18.913Z,99996.59
2023-03-05T11:26:52.410Z,99999.72
2023-03-05T11:29:32.614Z,100004.09
2023-03-05T11:32:23.993Z,100005.19
2023-03-05T11:34:52.176Z,99990.25
2023-03-05T11:37:31.571Z,100006.59
2023-03-05T11:40:19.247Z,99998.69
2023-03-05T11:42:55.532Z,99996.09
2023-03-05T11:45:25.018Z,99994.19
2023-03-05T11:48:20.074Z,99988.84
2023-03-05T11:50:54.686Z,99993.28
2023-03-05T11:53:29.539Z,99992.09
2023-03-05T11:56:19.199Z,99998.53
2023-03-05T11:58:51.017Z,99993.88
2023-03-05T12:01:22.285Z,100003.50
2023-03-05T12:03:53.205Z,100002.97
2023-03-05T12:06:35.080Z,99989.22
2023-03-05T12:09:12.304Z,99989.16
2023-03-05T12:11:40.830Z,99995.56
2023-03-05T12:14:32.769Z,99995.91
2023-03-05T12:17:20.436Z,99984.25
2023-03-05T12:20:14.074Z,99991.53
2023-03-05T12:22:43.462Z,99992.38
2023-03-05T12:25:46.566Z,99997.88
2023-03-05T12:28:43.296Z,99992.22
2023-03-05T12:31:49.491Z,99983.69
2023-03-05T12:34:42.272Z,99995.31
2023-03-05T12:37:13.154Z,99993.88
2023-03-05T12:39:50.968Z,99985.38
2023-03-05T12:42:30.478Z,99994.47
2023-03-05T12:45:14.635Z,99999.22
2023-03-05T12:47:47.722Z,99992.22
2023-03-05T12:50:29.063Z,99986.31
2023-03-05T12:53:12.423Z,99983.69
2023-03-05T12:55:48.632Z,99982.78
2023-03-05T12:58:26.096Z,99979.84
2023-03-05T13:01:03.178Z,99982.97
2023-03-05T13:03:37.245Z,99982.91
2023-03-05T13:06:06.790Z,99968.56
2023-03-05T13:08:37.418Z,99976.72
2023-03-05T13:11:09.454Z,99981.44
2023-03-05T13:13:46.527Z,99980.53
2023-03-05T13:16:24.043Z,99968.38
2023-03-05T13:18:53.502Z,99973.88
2023-03-05T13:21:32.045Z,99964.97
2023-03-05T13:24:03.103Z,99969.88
2023-03-05T13:26:41.404Z,99967.72
2023-03-05T13:29:11.992Z,99960.25
2023-03-05T13:31:47.679Z,99974.34
2023-03-05T13:34:20.604Z,99964.47
2023-03-05T13:37:01.023Z,99968.91
2023-03-05T13:39:33.305Z,99962.09
2023-03-05T13:42:25.957Z,99959.41
2023-03-05T13:45:20.478Z,99955.44
2023-03-05T13:47:59.984Z,99960.84
2023-03-05T13:50:33.529Z,99956.72
2023-03-05T13:53:23.975Z,99958.28
2023-03-05T13:55:58.190Z,99956.72
2023-03-05T13:58:48.174Z,99957.63
2023-03-05T14:01:24.383Z,99958.09
2023-03-05T14:04:18.008Z,99960.44
2023-03-05T14:07:06.340Z,99965.50
2023-03-05T14:09:40.099Z,99959.34
2023-03-05T14:12:25.139Z,99962.47
2023-03-05T14:15:27.797Z,99971.00
2023-03-05T14:18:19.881Z,99968.00
2023-03-05T14:21:09.255Z,99968.91
2023-03-05T14:23:38.580Z,99964.47
2023-03-05T14:26:26.945Z,99969.91
2023-03-05T14:29:02.801Z,99974.72
2023-03-05T14:31:37.058Z,99972.84
2023-03-05T14:34:07.476Z,99973.28
2023-03-05T14:36:36.356Z,99968.25
2023-03-05T14:39:05.173Z,99962.19
2023-03-05T14:41:40.228Z,99970.25
2023-03-05T14:44:16.326Z,99973.59
2023-03-05T14:46:50.600Z,99978.97
2023-03-05T14:49:18.918Z,99982.59
2023-03-05T14:51:47.280Z,99971.97
2023-03-05T14:54:24.314Z,99979.22
2023-03-05T14:56:53.162Z,99981.56
2023-03-05T14:59:23.460Z,99978.97
2023-03-05T15:01:51.628Z,99982.84
2023-03-05T15:04:19.965Z,99978.59
2023-03-05T15:06:51.206Z,99991.69
2023-03-05T15:09:21.182Z,99990.66
2023-03-05T15:11:52.609Z,99989.16
2023-03-05T15:14:20.268Z,99993.69
2023-03-05T15:16:48.908Z,99985.06
2023-03-05T15:19:17.214Z,99997.94
2023-03-05T15:21:44.976Z,99999.16
2023-03-05T15:24:14.918Z,99992.91
2023-03-05T15:26:44.643Z,99997.09
2023-03-05T15:29:12.283Z,99999.91
2023-03-05T15:31:41.428Z,100013.25
2023-03-05T15:34:09.449Z,100006.34
2023-03-05T15:36:38.694Z,100007.38
2023-03-05T15:39:07.265Z,100011.75
2023-03-05T15:41:34.910Z,100006.84
2023-03-05T15:44:02.856Z,100006.84
2023-03-05T15:46:32.606Z,100007.78
2023-03-05T15:49:00.319Z,100005.22
2023-03-05T15:51:28.333Z,100025.94
2023-03-05T15:53:56.539Z,100025.94
2023-03-05T15:56:24.730Z,100020.06
2023-03-05T15:58:52.443Z,100027.75
2023-03-05T16:01:20.803Z,100026.50
2023-03-05T16:03:48.524Z,100032.47
2023-03-05T16:06:24.658Z,100035.88
2023-03-05T16:08:58.736Z,100036.84
2023-03-05T16:11:27.087Z,100033.44
2023-03-05T16:13:55.308Z,100037.28
2023-03-05T16:16:25.376Z,100037.28
2023-03-05T16:18:53.826Z,100035.31
2023-03-05T16:21:22.226Z,100036.84
2023-03-05T16:23:50.688Z,100037.06
2023-03-05T16:26:25.180Z,100039.19
2023-03-05T16:28:52.952Z,100043.34
2023-03-05T16:31:20.756Z,100052.75
2023-03-05T16:33:48.410Z,100054.69
2023-03-05T16:36:27.450Z,100048.50
2023-03-05T16:38:58.836Z,100060.03
2023-03-05T16:41:27.592Z,100060.03
2023-03-05T16:43:59.203Z,100061.53
2023-03-05T16:46:29.023Z,100065.16
2023-03-05T16:48:58.243Z,100055.66
2023-03-05T16:51:31.298Z,100061.97
2023-03-05T16:53:59.278Z,100065.84
2023-03-05T16:56:26.839Z,100074.38
2023-03-05T16:58:56.122Z,100061.25
2023-03-05T17:01:24.494Z,100061.13
2023-03-05T17:03:54.301Z,100062.16
2023-03-05T17:06:24.387Z,100074.53
2023-03-05T17:08:52.968Z,100074.28
2023-03-05T17:11:21.155Z,100069.34
2023-03-05T17:13:49.581Z,100069.78
2023-03-05T17:16:19.763Z,100069.97
2023-03-05T17:18:48.606Z,100076.28
2023-03-05T17:21:17.574Z,100067.78
2023-03-05T17:23:45.064Z,100073.06
2023-03-05T17:26:16.394Z,100078.47
2023-03-05T17:28:45.131Z,100071.63
2023-03-05T17:31:14.138Z,100078.50
2023-03-05T17:33:42.136Z,100072.22
2023-03-05T17:36:15.153Z,100071.56
2023-03-05T17:38:42.770Z,100082.19
2023-03-05T17:41:10.979Z,100071.75
2023-03-05T17:43:38.631Z,100073.34
2023-03-05T17:46:06.826Z,100081.31
2023-03-05T17:48:34.880Z,100074.25
2023-03-05T17:51:02.389Z,100064.78
2023-03-05T17:53:30.111Z,100068.31
2023-03-05T17:56:01.229Z,100070.28
2023-03-05T17:58:29.909Z,100067.06
2023-03-05T18:00:57.530Z,100063.84
2023-03-05T18:03:26.945Z,100070.03
2023-03-05T18:05:54.543Z,100076.34
2023-03-05T18:08:22.838Z,100079.91
2023-03-05T18:10:51.213Z,100078.94
2023-03-05T18:13:19.905Z,100062.38
2023-03-05T18:15:47.897Z,100074.34
2023-03-05T18:18:16.901Z,100074.47
2023-03-05T18:20:45.831Z,100078.47
2023-03-05T18:23:13.523Z,100073.44
2023-03-05T18:25:41.354Z,100072.03
2023-03-05T18:28:13.574Z,100080.66
2023-03-05T18:30:42.529Z,100067.88
2023-03-05T18:33:24.527Z,100070.19
2023-03-05T18:35:52.638Z,100075.41
2023-03-05T18:38:22.425Z,100084.97
2023-03-05T18:40:51.461Z,100080.19
2023-03-05T18:43:21.415Z,100084.81
2023-03-05T18:45:51.338Z,100090.78
2023-03-05T18:48:21.405Z,100089.81
2023-03-05T18:50:54.645Z,100085.63
2023-03-05T18:53:22.816Z,100087.56
2023-03-05T18:55:52.257Z,100090.38
2023-03-05T18:58:20.105Z,100089.63
2023-03-05T19:00:48.421Z,100093.09
2023-03-05T19:03:19.333Z,100095.69
2023-03-05T19:05:47.829Z,100091.31
2023-03-05T19:08:17.623Z,100096.59
2023-03-05T19:10:47.458Z,100103.44
2023-03-05T19:13:33.321Z,100101.13
2023-03-05T19:16:27.853Z,100104.72
2023-03-05T19:19:20.043Z,100103.88
2023-03-05T19:21:56.474Z,100106.34
2023-03-05T19:24:26.696Z,100100.03
2023-03-05T19:27:01.082Z,100101.66
2023-03-05T19:29:34.395Z,100101.59
2023-03-05T19:32:02.061Z,100099.78
2023-03-05T19:34:31.846Z,100105.00
2023-03-05T19:36:59.544Z,100103.19
2023-03-05T19:39:27.125Z,100099.69
2023-03-05T19:41:54.903Z,100105.00
2023-03-05T19:44:23.115Z,100098.06
2023-03-05T19:46:50.757Z,100102.50
2023-03-05T19:49:19.595Z,100098.25
2023-03-05T19:51:48.150Z,100094.84
2023-03-05T19:54:18.120Z,100096.56
2023-03-05T19:56:47.136Z,100088.78
2023-03-05T19:59:17.901Z,100091.44
2023-03-05T20:01:46.189Z,100088.88
2023-03-05T20:04:17.330Z,100087.19
2023-03-05T20:06:45.387Z,100085.50
2023-03-05T20:09:14.206Z,100088.03
2023-03-05T20:11:43.660Z,100084.56
2023-03-05T20:14:14.575Z,100071.75
2023-03-05T20:16:43.437Z,100070.94
2023-03-05T20:19:16.871Z,100077.16
2023-03-05T20:21:45.240Z,100079.69
2023-03-05T20:24:15.731Z,100073.84
2023-03-05T20:26:45.422Z,100071.91
2023-03-05T20:29:16.937Z,100065.06
2023-03-05T20:31:45.651Z,100070.16
2023-03-05T20:34:15.893Z,100070.19
2023-03-05T20:36:44.578Z,100065.13
2023-03-05T20:39:12.253Z,100061.72
2023-03-05T20:41:40.321Z,100067.78
2023-03-05T20:44:11.499Z,100059.19
2023-03-05T20:46:49.706Z,100063.53
2023-03-05T20:49:18.998Z,100062.59
2023-03-05T20:51:50.099Z,100056.66
2023-03-05T20:54:17.794Z,100064.63
2023-03-05T20:56:45.438Z,100061.13
2023-03-05T20:59:12.950Z,100054.38
2023-03-05T21:01:41.090Z,100056.88
2023-03-05T21:04:09.096Z,100056.19
2023-03-05T21:06:37.073Z,100049.38
2023-03-05T21:10:17.660Z,100050.97
2023-03-05T21:12:48.372Z,100049.31
2023-03-05T21:15:20.040Z,100050.91
2023-03-05T21:17:48.489Z,100054.44
2023-03-05T21:20:20.770Z,100051.78
2023-03-05T21:22:48.643Z,100046.41
2023-03-05T21:25:22.001Z,100049.13
2023-03-05T21:28:12.186Z,100043.09
2023-03-05T21:30:48.835Z,100048.38
2023-03-05T21:33:26.272Z,100045.06
2023-03-05T21:35:54.789Z,100043.16
2023-03-05T21:38:25.577Z,100048.38
2023-03-05T21:40:58.952Z,100037.22
2023-03-05T21:43:27.975Z,100042.47
2023-03-05T21:45:57.297Z,100043.44
2023-03-05T21:48:25.872Z,100038.16
2023-03-05T21:50:55.318Z,100046.88
2023-03-05T21:53:23.639Z,100049.56
2023-03-05T21:56:04.212Z,100053.13
2023-03-05T21:58:36.372Z,100051.38
2023-03-05T22:01:04.180Z,100043.78
2023-03-05T22:03:31.793Z,100045.53
2023-03-05T22:05:59.345Z,100050.78
2023-03-05T22:08:29.056Z,100051.50
2023-03-05T22:10:57.077Z,100047.22
2023-03-05T22:13:25.558Z,100055.09
2023-03-05T22:15:55.472Z,100060.44
2023-03-05T22:18:30.978Z,100050.94
2023-03-05T22:20:59.815Z,100054.19
2023-03-05T22:23:30.119Z,100053.38
2023-03-05T22:25:59.506Z,100053.38
2023-03-05T22:28:27.333Z,100060.34
2023-03-05T22:30:55.506Z,100050.03
2023-03-05T22:33:23.485Z,100043.13
2023-03-05T22:35:52.999Z,100052.69
2023-03-05T22:38:21.986Z,100044.81
2023-03-05T22:40:52.249Z,100047.28
2023-03-05T22:43:20.705Z,100047.34
2023-03-05T22:45:48.447Z,100053.53
2023-03-05T22:48:16.362Z,100040.47
2023-03-05T22:50:44.743Z,100043.97
2023-03-05T22:53:13.146Z,100045.78
2023-03-05T22:55:42.237Z,100045.75
2023-03-05T22:58:13.256Z,100054.63
2023-03-05T23:00:42.419Z,100046.69
2023-03-05T23:03:10.005Z,100050.97
2023-03-05T23:05:39.595Z,100056.97
2023-03-05T23:08:08.366Z,100048.31
2023-03-05T23:10:38.014Z,100054.44
2023-03-05T23:13:05.646Z,100045.78
2023-03-05T23:15:36.542Z,100042.41
2023-03-05T23:18:14.337Z,100039.91
2023-03-05T23:20:42.786Z,100042.63
2023-03-05T23:23:10.433Z,100031.38
2023-03-05T23:25:39.014Z,100036.50
2023-03-05T23:28:06.906Z,100026.09
2023-03-05T23:30:38.871Z,100042.50
2023-03-05T23:33:21.654Z,100035.56
2023-03-05T23:35:55.459Z,100036.50
2023-03-05T23:38:24.522Z,100040.09
2023-03-05T23:40:54.130Z,100035.69
2023-03-05T23:43:24.737Z,100029.50
2023-03-05T23:45:55.203Z,100025.94
2023-03-05T23:48:26.543Z,100023.31
2023-03-05T23:50:55.331Z,100011.09
2023-03-05T23:53:29.255Z,100021.44
2023-03-05T23:55:57.524Z,100013.59
2023-03-05T23:58:26.126Z,100006.69
